sensor_id;sensor_type;location;lat;lon;timestamp;pressure;altitude;pressure_sealevel;temperature
45850;BMP180;10739;52.198;20.908;2023-03-21T00:01:31;100174.00;;;11.60
45850;BMP180;10739;52.198;20.908;2023-03-21T00:03:57;100172.00;;;11.90
45850;BMP180;10739;52.198;20.908;2023-03-21T00:06:24;100171.00;;;11.70
45850;BMP180;10739;52.198;20.908;2023-03-21T00:08:50;100163.00;;;11.60
45850;BMP180;10739;52.198;20.908;2023-03-21T00:11:16;100168.00;;;11.50
45850;BMP180;10739;52.198;20.908;2023-03-21T00:13:43;100162.00;;;11.60
45850;BMP180;10739;52.198;20.908;2023-03-21T00:16:16;100158.00;;;11.70
45850;BMP180;10739;52.198;20.908;2023-03-21T00:18:49;100167.00;;;11.60
45850;BMP180;10739;52.198;20.908;2023-03-21T00:21:20;100156.00;;;11.30
45850;BMP180;10739;52.198;20.908;2023-03-21T00:23:47;100165.00;;;11.30
45850;BMP180;10739;52.198;20.908;2023-03-21T00:26:14;100159.00;;;11.30
45850;BMP180;10739;52.198;20.908;2023-03-21T00:28:43;100153.00;;;11.40
45850;BMP180;10739;52.198;20.908;2023-03-21T00:31:10;100159.00;;;11.70
45850;BMP180;10739;52.198;20.908;2023-03-21T00:33:36;100158.00;;;11.30
45850;BMP180;10739;52.198;20.908;2023-03-21T00:36:06;100153.00;;;11.50
45850;BMP180;10739;52.198;20.908;2023-03-21T00:38:32;100153.00;;;11.70
45850;BMP180;10739;52.198;20.908;2023-03-21T00:40:59;100147.00;;;11.60
45850;BMP180;10739;52.198;20.908;2023-03-21T00:43:25;100157.00;;;11.60
45850;BMP180;10739;52.198;20.908;2023-03-21T00:45:56;100155.00;;;11.80
45850;BMP180;10739;52.198;20.908;2023-03-21T00:48:24;100150.00;;;11.30
45850;BMP180;10739;52.198;20.908;2023-03-21T00:50:54;100149.00;;;11.60
45850;BMP180;10739;52.198;20.908;2023-03-21T00:53:21;100153.00;;;11.60
45850;BMP180;10739;52.198;20.908;2023-03-21T00:55:48;100148.00;;;11.20
45850;BMP180;10739;52.198;20.908;2023-03-21T00:58:16;100146.00;;;11.40
45850;BMP180;10739;52.198;20.908;2023-03-21T01:00:42;100152.00;;;11.40
45850;BMP180;10739;52.198;20.908;2023-03-21T01:03:13;100146.00;;;11.00
45850;BMP180;10739;52.198;20.908;2023-03-21T01:05:46;100146.00;;;11.00
45850;BMP180;10739;52.198;20.908;2023-03-21T01:08:39;100150.00;;;11.40
45850;BMP180;10739;52.198;20.908;2023-03-21T01:11:11;100155.00;;;11.20
45850;BMP180;10739;52.198;20.908;2023-03-21T01:13:38;100144.00;;;11.30
45850;BMP180;10739;52.198;20.908;2023-03-21T01:16:07;100142.00;;;11.20
45850;BMP180;10739;52.198;20.908;2023-03-21T01:18:38;100146.00;;;11.40
45850;BMP180;10739;52.198;20.908;2023-03-21T01:21:10;100141.00;;;11.30
45850;BMP180;10739;52.198;20.908;2023-03-21T01:23:40;100146.00;;;11.00
45850;BMP180;10739;52.198;20.908;2023-03-21T01:26:09;100136.00;;;11.20
45850;BMP180;10739;52.198;20.908;2023-03-21T01:28:37;100133.00;;;11.00
45850;BMP180;10739;52.198;20.908;2023-03-21T01:31:05;100135.00;;;11.10
45850;BMP180;10739;52.198;20.908;2023-03-21T01:33:32;100134.00;;;11.00
45850;BMP180;10739;52.198;20.908;2023-03-21T01:35:59;100143.00;;;11.20
45850;BMP180;10739;52.198;20.908;2023-03-21T01:38:26;100128.00;;;10.80
45850;BMP180;10739;52.198;20.908;2023-03-21T01:40:53;100134.00;;;11.20
45850;BMP180;10739;52.198;20.908;2023-03-21T01:49:50;100117.00;;;10.90
45850;BMP180;10739;52.198;20.908;2023-03-21T01:52:24;100122.00;;;10.70
45850;BMP180;10739;52.198;20.908;2023-03-21T01:54:54;100119.00;;;10.80
45850;BMP180;10739;52.198;20.908;2023-03-21T01:57:27;100114.00;;;10.70
45850;BMP180;10739;52.198;20.908;2023-03-21T02:00:00;100125.00;;;10.50
45850;BMP180;10739;52.198;20.908;2023-03-21T02:02:42;100123.00;;;10.80
45850;BMP180;10739;52.198;20.908;2023-03-21T02:05:59;100113.00;;;11.10
45850;BMP180;10739;52.198;20.908;2023-03-21T02:08:29;100112.00;;;10.80
45850;BMP180;10739;52.198;20.908;2023-03-21T02:10:56;100115.00;;;11.10
45850;BMP180;10739;52.198;20.908;2023-03-21T02:13:23;100110.00;;;11.20
45850;BMP180;10739;52.198;20.908;2023-03-21T02:16:11;100117.00;;;10.90
45850;BMP180;10739;52.198;20.908;2023-03-21T02:24:58;100112.00;;;11.70
45850;BMP180;10739;52.198;20.908;2023-03-21T02:27:50;100119.00;;;11.00
45850;BMP180;10739;52.198;20.908;2023-03-21T02:33:34;100120.00;;;11.40
45850;BMP180;10739;52.198;20.908;2023-03-21T02:39:25;100124.00;;;10.40
45850;BMP180;10739;52.198;20.908;2023-03-21T02:45:16;100110.00;;;10.60
45850;BMP180;10739;52.198;20.908;2023-03-21T02:47:56;100119.00;;;10.70
45850;BMP180;10739;52.198;20.908;2023-03-21T02:50:48;100118.00;;;10.70
45850;BMP180;10739;52.198;20.908;2023-03-21T02:53:21;100122.00;;;10.70
45850;BMP180;10739;52.198;20.908;2023-03-21T02:55:51;100122.00;;;11.10
45850;BMP180;10739;52.198;20.908;2023-03-21T02:58:21;100118.00;;;10.80
45850;BMP180;10739;52.198;20.908;2023-03-21T03:00:50;100133.00;;;10.50
45850;BMP180;10739;52.198;20.908;2023-03-21T03:03:21;100125.00;;;10.30
45850;BMP180;10739;52.198;20.908;2023-03-21T03:05:53;100125.00;;;10.50
45850;BMP180;10739;52.198;20.908;2023-03-21T03:11:39;100133.00;;;10.50
45850;BMP180;10739;52.198;20.908;2023-03-21T03:26:13;100134.00;;;10.60
45850;BMP180;10739;52.198;20.908;2023-03-21T03:28:46;100137.00;;;10.80
45850;BMP180;10739;52.198;20.908;2023-03-21T03:31:20;100143.00;;;10.30
45850;BMP180;10739;52.198;20.908;2023-03-21T03:33:55;100136.00;;;10.50
45850;BMP180;10739;52.198;20.908;2023-03-21T03:36:30;100132.00;;;10.50
45850;BMP180;10739;52.198;20.908;2023-03-21T03:39:09;100135.00;;;10.80
45850;BMP180;10739;52.198;20.908;2023-03-21T03:42:03;100144.00;;;10.60
45850;BMP180;10739;52.198;20.908;2023-03-21T03:44:30;100138.00;;;10.50
45850;BMP180;10739;52.198;20.908;2023-03-21T03:47:06;100141.00;;;10.80
45850;BMP180;10739;52.198;20.908;2023-03-21T03:50:06;100139.00;;;10.80
45850;BMP180;10739;52.198;20.908;2023-03-21T03:52:40;100143.00;;;10.70
45850;BMP180;10739;52.198;20.908;2023-03-21T03:55:11;100147.00;;;10.60
45850;BMP180;10739;52.198;20.908;2023-03-21T03:57:39;100141.00;;;10.70
45850;BMP180;10739;52.198;20.908;2023-03-21T04:00:08;100142.00;;;10.60
45850;BMP180;10739;52.198;20.908;2023-03-21T04:02:40;100137.00;;;10.80
45850;BMP180;10739;52.198;20.908;2023-03-21T04:05:08;100140.00;;;10.10
45850;BMP180;10739;52.198;20.908;2023-03-21T04:07:34;100137.00;;;10.50
45850;BMP180;10739;52.198;20.908;2023-03-21T04:10:01;100136.00;;;10.90
45850;BMP180;10739;52.198;20.908;2023-03-21T04:12:27;100137.00;;;10.60
45850;BMP180;10739;52.198;20.908;2023-03-21T04:14:53;100142.00;;;10.70
45850;BMP180;10739;52.198;20.908;2023-03-21T04:17:19;100135.00;;;10.50
45850;BMP180;10739;52.198;20.908;2023-03-21T04:19:46;100133.00;;;10.30
45850;BMP180;10739;52.198;20.908;2023-03-21T04:22:13;100136.00;;;11.10
45850;BMP180;10739;52.198;20.908;2023-03-21T04:24:40;100137.00;;;11.00
45850;BMP180;10739;52.198;20.908;2023-03-21T04:27:07;100143.00;;;10.70
45850;BMP180;10739;52.198;20.908;2023-03-21T04:29:34;100135.00;;;10.50
45850;BMP180;10739;52.198;20.908;2023-03-21T04:32:00;100138.00;;;10.50
45850;BMP180;10739;52.198;20.908;2023-03-21T04:34:26;100149.00;;;10.60
45850;BMP180;10739;52.198;20.908;2023-03-21T04:36:55;100141.00;;;10.80
45850;BMP180;10739;52.198;20.908;2023-03-21T04:39:22;100141.00;;;10.80
45850;BMP180;10739;52.198;20.908;2023-03-21T04:41:49;100147.00;;;11.00
45850;BMP180;10739;52.198;20.908;2023-03-21T04:44:17;100142.00;;;10.60
45850;BMP180;10739;52.198;20.908;2023-03-21T04:46:44;100131.00;;;10.40
45850;BMP180;10739;52.198;20.908;2023-03-21T04:49:10;100138.00;;;10.60
45850;BMP180;10739;52.198;20.908;2023-03-21T04:51:37;100132.00;;;10.90
45850;BMP180;10739;52.198;20.908;2023-03-21T04:54:04;100143.00;;;11.00
45850;BMP180;10739;52.198;20.908;2023-03-21T04:56:30;100141.00;;;10.80
45850;BMP180;10739;52.198;20.908;2023-03-21T04:58:59;100147.00;;;11.00
45850;BMP180;10739;52.198;20.908;2023-03-21T05:01:26;100149.00;;;10.70
45850;BMP180;10739;52.198;20.908;2023-03-21T05:03:59;100139.00;;;10.40
45850;BMP180;10739;52.198;20.908;2023-03-21T05:06:26;100147.00;;;10.60
45850;BMP180;10739;52.198;20.908;2023-03-21T05:08:55;100149.00;;;10.20
45850;BMP180;10739;52.198;20.908;2023-03-21T05:11:26;100150.00;;;10.90
45850;BMP180;10739;52.198;20.908;2023-03-21T05:13:53;100164.00;;;10.90
45850;BMP180;10739;52.198;20.908;2023-03-21T05:16:19;100150.00;;;10.50
45850;BMP180;10739;52.198;20.908;2023-03-21T05:18:46;100155.00;;;10.60
45850;BMP180;10739;52.198;20.908;2023-03-21T05:21:15;100156.00;;;10.90
45850;BMP180;10739;52.198;20.908;2023-03-21T05:23:43;100160.00;;;10.50
45850;BMP180;10739;52.198;20.908;2023-03-21T05:26:11;100155.00;;;10.80
45850;BMP180;10739;52.198;20.908;2023-03-21T05:28:37;100158.00;;;10.60
45850;BMP180;10739;52.198;20.908;2023-03-21T05:31:06;100164.00;;;10.70
45850;BMP180;10739;52.198;20.908;2023-03-21T05:33:33;100159.00;;;10.80
45850;BMP180;10739;52.198;20.908;2023-03-21T05:35:59;100158.00;;;10.90
45850;BMP180;10739;52.198;20.908;2023-03-21T05:38:25;100166.00;;;10.90
45850;BMP180;10739;52.198;20.908;2023-03-21T05:40:52;100161.00;;;10.90
45850;BMP180;10739;52.198;20.908;2023-03-21T05:43:19;100164.00;;;10.40
45850;BMP180;10739;52.198;20.908;2023-03-21T05:45:45;100173.00;;;10.70
45850;BMP180;10739;52.198;20.908;2023-03-21T05:48:13;100168.00;;;10.90
45850;BMP180;10739;52.198;20.908;2023-03-21T05:50:39;100175.00;;;10.90
45850;BMP180;10739;52.198;20.908;2023-03-21T05:53:06;100180.00;;;11.00
45850;BMP180;10739;52.198;20.908;2023-03-21T05:55:32;100176.00;;;10.90
45850;BMP180;10739;52.198;20.908;2023-03-21T05:57:59;100176.00;;;10.80
45850;BMP180;10739;52.198;20.908;2023-03-21T06:00:25;100182.00;;;11.10
45850;BMP180;10739;52.198;20.908;2023-03-21T06:02:52;100187.00;;;11.40
45850;BMP180;10739;52.198;20.908;2023-03-21T06:05:18;100193.00;;;11.20
45850;BMP180;10739;52.198;20.908;2023-03-21T06:07:47;100189.00;;;10.80
45850;BMP180;10739;52.198;20.908;2023-03-21T06:10:21;100190.00;;;11.10
45850;BMP180;10739;52.198;20.908;2023-03-21T06:12:47;100193.00;;;10.90
45850;BMP180;10739;52.198;20.908;2023-03-21T06:15:14;100197.00;;;11.00
45850;BMP180;10739;52.198;20.908;2023-03-21T06:17:40;100201.00;;;10.80
45850;BMP180;10739;52.198;20.908;2023-03-21T06:20:07;100199.00;;;11.20
45850;BMP180;10739;52.198;20.908;2023-03-21T06:22:34;100201.00;;;11.70
45850;BMP180;10739;52.198;20.908;2023-03-21T06:25:02;100204.00;;;11.70
45850;BMP180;10739;52.198;20.908;2023-03-21T06:27:28;100205.00;;;12.00
45850;BMP180;10739;52.198;20.908;2023-03-21T06:29:54;100202.00;;;11.90
45850;BMP180;10739;52.198;20.908;2023-03-21T06:32:22;100203.00;;;11.70
45850;BMP180;10739;52.198;20.908;2023-03-21T06:34:49;100203.00;;;11.90
45850;BMP180;10739;52.198;20.908;2023-03-21T06:37:15;100210.00;;;12.00
45850;BMP180;10739;52.198;20.908;2023-03-21T06:39:42;100212.00;;;11.90
45850;BMP180;10739;52.198;20.908;2023-03-21T06:42:08;100204.00;;;12.00
45850;BMP180;10739;52.198;20.908;2023-03-21T06:44:34;100208.00;;;11.80
45850;BMP180;10739;52.198;20.908;2023-03-21T06:47:00;100212.00;;;11.30
45850;BMP180;10739;52.198;20.908;2023-03-21T06:49:27;100220.00;;;11.30
45850;BMP180;10739;52.198;20.908;2023-03-21T06:51:53;100218.00;;;11.80
45850;BMP180;10739;52.198;20.908;2023-03-21T06:54:19;100214.00;;;11.70
45850;BMP180;10739;52.198;20.908;2023-03-21T06:56:46;100219.00;;;11.30
45850;BMP180;10739;52.198;20.908;2023-03-21T06:59:12;100225.00;;;11.00
45850;BMP180;10739;52.198;20.908;2023-03-21T07:01:39;100226.00;;;11.50
45850;BMP180;10739;52.198;20.908;2023-03-21T07:04:05;100223.00;;;12.00
45850;BMP180;10739;52.198;20.908;2023-03-21T07:06:32;100220.00;;;11.60
45850;BMP180;10739;52.198;20.908;2023-03-21T07:08:59;100228.00;;;11.70
45850;BMP180;10739;52.198;20.908;2023-03-21T07:11:25;100229.00;;;11.60
45850;BMP180;10739;52.198;20.908;2023-03-21T07:13:52;100226.00;;;11.60
45850;BMP180;10739;52.198;20.908;2023-03-21T07:16:18;100228.00;;;11.60
45850;BMP180;10739;52.198;20.908;2023-03-21T07:18:47;100233.00;;;11.60
45850;BMP180;10739;52.198;20.908;2023-03-21T07:21:13;100230.00;;;12.00
45850;BMP180;10739;52.198;20.908;2023-03-21T07:23:40;100232.00;;;12.20
45850;BMP180;10739;52.198;20.908;2023-03-21T07:26:07;100232.00;;;12.30
45850;BMP180;10739;52.198;20.908;2023-03-21T07:28:33;100233.00;;;12.40
45850;BMP180;10739;52.198;20.908;2023-03-21T07:31:04;100243.00;;;12.30
45850;BMP180;10739;52.198;20.908;2023-03-21T07:33:32;100241.00;;;12.40
45850;BMP180;10739;52.198;20.908;2023-03-21T07:35:59;100234.00;;;12.60
45850;BMP180;10739;52.198;20.908;2023-03-21T07:38:26;100244.00;;;12.70
45850;BMP180;10739;52.198;20.908;2023-03-21T07:40:52;100240.00;;;13.00
45850;BMP180;10739;52.198;20.908;2023-03-21T07:43:19;100233.00;;;12.70
45850;BMP180;10739;52.198;20.908;2023-03-21T07:45:46;100229.00;;;13.10
45850;BMP180;10739;52.198;20.908;2023-03-21T07:48:13;100232.00;;;13.20
45850;BMP180;10739;52.198;20.908;2023-03-21T07:50:40;100241.00;;;12.80
45850;BMP180;10739;52.198;20.908;2023-03-21T07:53:07;100241.00;;;12.50
45850;BMP180;10739;52.198;20.908;2023-03-21T07:55:33;100238.00;;;12.90
45850;BMP180;10739;52.198;20.908;2023-03-21T07:58:04;100237.00;;;12.70
45850;BMP180;10739;52.198;20.908;2023-03-21T08:00:30;100242.00;;;12.20
45850;BMP180;10739;52.198;20.908;2023-03-21T08:02:58;100245.00;;;12.20
45850;BMP180;10739;52.198;20.908;2023-03-21T08:05:29;100241.00;;;12.60
45850;BMP180;10739;52.198;20.908;2023-03-21T08:07:56;100243.00;;;12.70
45850;BMP180;10739;52.198;20.908;2023-03-21T08:10:23;100236.00;;;13.00
45850;BMP180;10739;52.198;20.908;2023-03-21T08:12:49;100243.00;;;12.70
45850;BMP180;10739;52.198;20.908;2023-03-21T08:15:16;100249.00;;;12.50
45850;BMP180;10739;52.198;20.908;2023-03-21T08:17:42;100246.00;;;12.60
45850;BMP180;10739;52.198;20.908;2023-03-21T08:20:17;100246.00;;;12.20
45850;BMP180;10739;52.198;20.908;2023-03-21T08:22:47;100253.00;;;12.90
45850;BMP180;10739;52.198;20.908;2023-03-21T08:25:16;100250.00;;;12.60
45850;BMP180;10739;52.198;20.908;2023-03-21T08:27:44;100248.00;;;13.00
45850;BMP180;10739;52.198;20.908;2023-03-21T08:30:15;100256.00;;;13.00
45850;BMP180;10739;52.198;20.908;2023-03-21T08:32:42;100252.00;;;13.20
45850;BMP180;10739;52.198;20.908;2023-03-21T08:35:11;100260.00;;;13.40
45850;BMP180;10739;52.198;20.908;2023-03-21T08:37:42;100254.00;;;12.30
45850;BMP180;10739;52.198;20.908;2023-03-21T08:40:13;100262.00;;;12.30
45850;BMP180;10739;52.198;20.908;2023-03-21T08:42:41;100257.00;;;12.80
45850;BMP180;10739;52.198;20.908;2023-03-21T08:45:10;100259.00;;;12.60
45850;BMP180;10739;52.198;20.908;2023-03-21T08:47:39;100269.00;;;12.50
45850;BMP180;10739;52.198;20.908;2023-03-21T08:50:11;100276.00;;;12.10
45850;BMP180;10739;52.198;20.908;2023-03-21T08:52:38;100274.00;;;11.90
45850;BMP180;10739;52.198;20.908;2023-03-21T08:55:08;100272.00;;;12.20
45850;BMP180;10739;52.198;20.908;2023-03-21T08:57:34;100275.00;;;12.80
45850;BMP180;10739;52.198;20.908;2023-03-21T09:00:04;100276.00;;;12.30
45850;BMP180;10739;52.198;20.908;2023-03-21T09:02:42;100273.00;;;13.00
45850;BMP180;10739;52.198;20.908;2023-03-21T09:05:10;100285.00;;;12.80
45850;BMP180;10739;52.198;20.908;2023-03-21T09:07:38;100282.00;;;12.40
45850;BMP180;10739;52.198;20.908;2023-03-21T09:10:07;100280.00;;;12.20
45850;BMP180;10739;52.198;20.908;2023-03-21T09:12:35;100279.00;;;12.70
45850;BMP180;10739;52.198;20.908;2023-03-21T09:15:02;100285.00;;;12.80
45850;BMP180;10739;52.198;20.908;2023-03-21T09:17:30;100286.00;;;12.80
45850;BMP180;10739;52.198;20.908;2023-03-21T09:19:58;100286.00;;;13.00
45850;BMP180;10739;52.198;20.908;2023-03-21T09:22:26;100284.00;;;12.70
45850;BMP180;10739;52.198;20.908;2023-03-21T09:24:53;100284.00;;;13.30
45850;BMP180;10739;52.198;20.908;2023-03-21T09:27:19;100294.00;;;13.20
45850;BMP180;10739;52.198;20.908;2023-03-21T09:29:48;100299.00;;;13.10
45850;BMP180;10739;52.198;20.908;2023-03-21T09:32:16;100297.00;;;13.30
45850;BMP180;10739;52.198;20.908;2023-03-21T09:34:44;100294.00;;;13.10
45850;BMP180;10739;52.198;20.908;2023-03-21T09:37:10;100302.00;;;12.90
45850;BMP180;10739;52.198;20.908;2023-03-21T09:39:42;100288.00;;;13.40
45850;BMP180;10739;52.198;20.908;2023-03-21T09:42:51;100294.00;;;13.30
45850;BMP180;10739;52.198;20.908;2023-03-21T09:45:49;100304.00;;;13.50
45850;BMP180;10739;52.198;20.908;2023-03-21T09:48:35;100300.00;;;12.90
45850;BMP180;10739;52.198;20.908;2023-03-21T09:51:04;100305.00;;;13.20
45850;BMP180;10739;52.198;20.908;2023-03-21T09:53:39;100311.00;;;12.90
45850;BMP180;10739;52.198;20.908;2023-03-21T09:56:09;100306.00;;;13.10
45850;BMP180;10739;52.198;20.908;2023-03-21T09:58:45;100305.00;;;13.40
45850;BMP180;10739;52.198;20.908;2023-03-21T10:01:29;100298.00;;;13.40
45850;BMP180;10739;52.198;20.908;2023-03-21T10:04:05;100306.00;;;13.00
45850;BMP180;10739;52.198;20.908;2023-03-21T10:06:39;100312.00;;;12.90
45850;BMP180;10739;52.198;20.908;2023-03-21T10:09:19;100310.00;;;12.90
45850;BMP180;10739;52.198;20.908;2023-03-21T10:12:05;100303.00;;;13.50
45850;BMP180;10739;52.198;20.908;2023-03-21T10:14:39;100306.00;;;13.20
45850;BMP180;10739;52.198;20.908;2023-03-21T10:17:33;100309.00;;;13.30
45850;BMP180;10739;52.198;20.908;2023-03-21T10:20:28;100314.00;;;12.80
45850;BMP180;10739;52.198;20.908;2023-03-21T10:22:57;100319.00;;;12.80
45850;BMP180;10739;52.198;20.908;2023-03-21T10:25:36;100323.00;;;12.60
45850;BMP180;10739;52.198;20.908;2023-03-21T10:28:06;100324.00;;;13.00
45850;BMP180;10739;52.198;20.908;2023-03-21T10:33:16;100318.00;;;13.30
45850;BMP180;10739;52.198;20.908;2023-03-21T10:35:52;100318.00;;;13.30
45850;BMP180;10739;52.198;20.908;2023-03-21T10:38:24;100312.00;;;13.30
45850;BMP180;10739;52.198;20.908;2023-03-21T10:40:52;100323.00;;;13.60
45850;BMP180;10739;52.198;20.908;2023-03-21T10:45:55;100320.00;;;13.60
45850;BMP180;10739;52.198;20.908;2023-03-21T10:48:23;100322.00;;;13.40
45850;BMP180;10739;52.198;20.908;2023-03-21T10:50:53;100320.00;;;13.40
45850;BMP180;10739;52.198;20.908;2023-03-21T10:53:37;100321.00;;;13.60
45850;BMP180;10739;52.198;20.908;2023-03-21T10:56:08;100315.00;;;13.30
45850;BMP180;10739;52.198;20.908;2023-03-21T10:58:43;100325.00;;;13.50
45850;BMP180;10739;52.198;20.908;2023-03-21T11:01:20;100323.00;;;13.60
45850;BMP180;10739;52.198;20.908;2023-03-21T11:04:07;100333.00;;;13.30
45850;BMP180;10739;52.198;20.908;2023-03-21T11:06:40;100324.00;;;13.60
45850;BMP180;10739;52.198;20.908;2023-03-21T11:09:15;100323.00;;;13.50
45850;BMP180;10739;52.198;20.908;2023-03-21T11:12:12;100318.00;;;13.60
45850;BMP180;10739;52.198;20.908;2023-03-21T11:14:44;100320.00;;;14.00
45850;BMP180;10739;52.198;20.908;2023-03-21T11:22:37;100314.00;;;14.40
45850;BMP180;10739;52.198;20.908;2023-03-21T11:25:09;100311.00;;;14.40
45850;BMP180;10739;52.198;20.908;2023-03-21T11:27:48;100310.00;;;14.50
45850;BMP180;10739;52.198;20.908;2023-03-21T11:30:33;100311.00;;;14.20
45850;BMP180;10739;52.198;20.908;2023-03-21T11:33:02;100309.00;;;14.30
45850;BMP180;10739;52.198;20.908;2023-03-21T11:36:04;100305.00;;;14.50
45850;BMP180;10739;52.198;20.908;2023-03-21T11:38:37;100306.00;;;14.60
45850;BMP180;10739;52.198;20.908;2023-03-21T11:41:05;100301.00;;;14.40
45850;BMP180;10739;52.198;20.908;2023-03-21T11:43:36;100306.00;;;15.00
45850;BMP180;10739;52.198;20.908;2023-03-21T11:48:40;100303.00;;;14.90
45850;BMP180;10739;52.198;20.908;2023-03-21T12:05:51;100301.00;;;14.30
45850;BMP180;10739;52.198;20.908;2023-03-21T12:20:06;100297.00;;;14.60
45850;BMP180;10739;52.198;20.908;2023-03-21T12:25:41;100293.00;;;14.30
45850;BMP180;10739;52.198;20.908;2023-03-21T12:28:36;100291.00;;;14.60
45850;BMP180;10739;52.198;20.908;2023-03-21T12:35:01;100284.00;;;14.30
45850;BMP180;10739;52.198;20.908;2023-03-21T12:44:08;100288.00;;;15.00
45850;BMP180;10739;52.198;20.908;2023-03-21T12:46:46;100281.00;;;14.80
45850;BMP180;10739;52.198;20.908;2023-03-21T12:49:25;100287.00;;;15.00
45850;BMP180;10739;52.198;20.908;2023-03-21T12:52:02;100276.00;;;15.20
45850;BMP180;10739;52.198;20.908;2023-03-21T12:54:55;100288.00;;;14.90
45850;BMP180;10739;52.198;20.908;2023-03-21T12:57:38;100285.00;;;15.10
45850;BMP180;10739;52.198;20.908;2023-03-21T13:00:41;100277.00;;;15.40
45850;BMP180;10739;52.198;20.908;2023-03-21T13:05:56;100280.00;;;15.30
45850;BMP180;10739;52.198;20.908;2023-03-21T13:08:48;100277.00;;;15.40
45850;BMP180;10739;52.198;20.908;2023-03-21T13:11:23;100275.00;;;16.00
45850;BMP180;10739;52.198;20.908;2023-03-21T13:14:27;100271.00;;;15.20
45850;BMP180;10739;52.198;20.908;2023-03-21T13:17:17;100280.00;;;14.50
45850;BMP180;10739;52.198;20.908;2023-03-21T13:20:00;100279.00;;;13.70
45850;BMP180;10739;52.198;20.908;2023-03-21T13:22:32;100278.00;;;13.30
45850;BMP180;10739;52.198;20.908;2023-03-21T13:25:18;100280.00;;;14.10
45850;BMP180;10739;52.198;20.908;2023-03-21T13:28:00;100283.00;;;14.10
45850;BMP180;10739;52.198;20.908;2023-03-21T13:30:29;100270.00;;;14.40
45850;BMP180;10739;52.198;20.908;2023-03-21T13:33:12;100275.00;;;14.60
45850;BMP180;10739;52.198;20.908;2023-03-21T13:35:43;100267.00;;;14.80
45850;BMP180;10739;52.198;20.908;2023-03-21T13:38:13;100265.00;;;15.00
45850;BMP180;10739;52.198;20.908;2023-03-21T13:41:41;100265.00;;;15.30
45850;BMP180;10739;52.198;20.908;2023-03-21T13:44:13;100270.00;;;15.30
45850;BMP180;10739;52.198;20.908;2023-03-21T13:47:43;100268.00;;;15.60
45850;BMP180;10739;52.198;20.908;2023-03-21T13:55:44;100264.00;;;15.30
45850;BMP180;10739;52.198;20.908;2023-03-21T13:58:36;100264.00;;;15.40
45850;BMP180;10739;52.198;20.908;2023-03-21T14:04:19;100264.00;;;15.30
45850;BMP180;10739;52.198;20.908;2023-03-21T14:07:05;100258.00;;;16.20
45850;BMP180;10739;52.198;20.908;2023-03-21T14:09:47;100257.00;;;17.00
45850;BMP180;10739;52.198;20.908;2023-03-21T14:12:18;100261.00;;;17.20
45850;BMP180;10739;52.198;20.908;2023-03-21T14:14:52;100253.00;;;16.90
45850;BMP180;10739;52.198;20.908;2023-03-21T14:17:32;100265.00;;;16.80
45850;BMP180;10739;52.198;20.908;2023-03-21T14:20:18;100268.00;;;16.40
45850;BMP180;10739;52.198;20.908;2023-03-21T14:22:49;100262.00;;;16.50
45850;BMP180;10739;52.198;20.908;2023-03-21T14:25:20;100267.00;;;16.30
45850;BMP180;10739;52.198;20.908;2023-03-21T14:27:52;100262.00;;;15.50
45850;BMP180;10739;52.198;20.908;2023-03-21T14:30:54;100268.00;;;15.60
45850;BMP180;10739;52.198;20.908;2023-03-21T14:33:40;100272.00;;;15.30
45850;BMP180;10739;52.198;20.908;2023-03-21T14:36:23;100264.00;;;15.10
45850;BMP180;10739;52.198;20.908;2023-03-21T14:39:03;100277.00;;;15.20
45850;BMP180;10739;52.198;20.908;2023-03-21T14:41:32;100270.00;;;15.10
45850;BMP180;10739;52.198;20.908;2023-03-21T14:44:23;100265.00;;;15.20
45850;BMP180;10739;52.198;20.908;2023-03-21T14:47:01;100260.00;;;15.10
45850;BMP180;10739;52.198;20.908;2023-03-21T14:49:31;100271.00;;;15.40
45850;BMP180;10739;52.198;20.908;2023-03-21T14:52:06;100264.00;;;15.20
45850;BMP180;10739;52.198;20.908;2023-03-21T14:54:38;100266.00;;;15.00
45850;BMP180;10739;52.198;20.908;2023-03-21T14:57:13;100259.00;;;15.20
45850;BMP180;10739;52.198;20.908;2023-03-21T14:59:40;100270.00;;;15.00
45850;BMP180;10739;52.198;20.908;2023-03-21T15:02:29;100257.00;;;15.40
45850;BMP180;10739;52.198;20.908;2023-03-21T15:05:07;100265.00;;;15.40
45850;BMP180;10739;52.198;20.908;2023-03-21T15:07:34;100259.00;;;15.40
45850;BMP180;10739;52.198;20.908;2023-03-21T15:10:07;100260.00;;;15.70
45850;BMP180;10739;52.198;20.908;2023-03-21T15:12:33;100260.00;;;15.70
45850;BMP180;10739;52.198;20.908;2023-03-21T15:15:01;100260.00;;;15.30
45850;BMP180;10739;52.198;20.908;2023-03-21T15:17:28;100263.00;;;15.40
45850;BMP180;10739;52.198;20.908;2023-03-21T15:19:55;100250.00;;;15.40
45850;BMP180;10739;52.198;20.908;2023-03-21T15:22:42;100252.00;;;14.90
45850;BMP180;10739;52.198;20.908;2023-03-21T15:25:17;100250.00;;;15.00
45850;BMP180;10739;52.198;20.908;2023-03-21T15:27:44;100252.00;;;15.00
45850;BMP180;10739;52.198;20.908;2023-03-21T15:30:24;100248.00;;;14.30
45850;BMP180;10739;52.198;20.908;2023-03-21T15:32:51;100254.00;;;14.90
45850;BMP180;10739;52.198;20.908;2023-03-21T15:35:40;100253.00;;;14.90
45850;BMP180;10739;52.198;20.908;2023-03-21T15:44:09;100252.00;;;14.70
45850;BMP180;10739;52.198;20.908;2023-03-21T15:46:50;100256.00;;;14.60
45850;BMP180;10739;52.198;20.908;2023-03-21T15:49:31;100253.00;;;14.80
45850;BMP180;10739;52.198;20.908;2023-03-21T15:52:13;100259.00;;;14.90
45850;BMP180;10739;52.198;20.908;2023-03-21T15:57:24;100253.00;;;14.50
45850;BMP180;10739;52.198;20.908;2023-03-21T16:00:00;100254.00;;;14.60
45850;BMP180;10739;52.198;20.908;2023-03-21T16:02:39;100249.00;;;14.80
45850;BMP180;10739;52.198;20.908;2023-03-21T16:05:23;100254.00;;;14.50